createdAt,value
2018-10-19T00:04:00.308Z,22
2018-10-19T00:09:02.820Z,23
2018-10-19T00:14:05.280Z,21
2018-10-19T00:19:07.611Z,19
2018-10-19T00:24:10.058Z,21
2018-10-19T00:29:12.663Z,20
2018-10-19T00:34:14.934Z,21
2018-10-19T00:39:17.474Z,19
2018-10-19T00:44:19.840Z,20
2018-10-19T00:49:22.244Z,20
2018-10-19T00:54:24.690Z,17
2018-10-19T00:59:27.184Z,16
2018-10-19T01:04:29.576Z,16
2018-10-19T01:09:32.035Z,16
2018-10-19T01:14:34.478Z,16
2018-10-19T01:19:36.894Z,16
2018-10-19T01:24:39.345Z,15
2018-10-19T01:29:41.782Z,14
2018-10-19T01:34:44.217Z,14
2018-10-19T01:39:46.646Z,16
2018-10-19T01:44:49.099Z,15
2018-10-19T01:49:51.545Z,15
2018-10-19T01:54:53.974Z,14
2018-10-19T01:59:56.420Z,15
2018-10-19T02:04:58.922Z,16
2018-10-19T02:10:06.583Z,16
2018-10-19T02:15:03.840Z,15
2018-10-19T02:20:06.197Z,15
2018-10-19T02:25:08.629Z,14
2018-10-19T02:30:11.110Z,12
2018-10-19T02:35:13.600Z,12
2018-10-19T02:40:15.950Z,12
2018-10-19T02:45:18.489Z,14
2018-10-19T02:50:20.825Z,11
2018-10-19T02:55:23.270Z,10
2018-10-19T03:00:25.723Z,10
2018-10-19T03:05:28.145Z,7
2018-10-19T03:10:30.603Z,5
2018-10-19T03:15:33.037Z,6
2018-10-19T03:20:35.467Z,6
2018-10-19T03:25:37.910Z,7
2018-10-19T03:30:40.523Z,6
2018-10-19T03:35:42.786Z,6
2018-10-19T03:40:45.219Z,7
2018-10-19T03:45:47.669Z,6
2018-10-19T03:50:50.100Z,6
2018-10-19T03:55:52.588Z,7
2018-10-19T04:00:55.017Z,7
2018-10-19T04:05:57.462Z,7
2018-10-19T04:10:59.954Z,8
2018-10-19T04:16:07.382Z,8
2018-10-19T04:21:04.863Z,8
2018-10-19T04:26:07.255Z,11
2018-10-19T04:31:09.715Z,20
2018-10-19T04:36:17.068Z,17
2018-10-19T04:41:14.755Z,14
2018-10-19T04:46:17.041Z,14
2018-10-19T04:51:19.388Z,13
2018-10-19T04:56:21.833Z,13
2018-10-19T05:01:24.281Z,8
2018-10-19T05:06:26.791Z,7
2018-10-19T05:11:29.155Z,9
2018-10-19T05:16:31.603Z,8
2018-10-19T05:21:34.044Z,7
2018-10-19T05:26:36.465Z,7
2018-10-19T05:31:38.943Z,7
2018-10-19T05:36:41.357Z,5
2018-10-19T05:41:43.801Z,6
2018-10-19T05:46:46.232Z,7
2018-10-19T05:51:48.679Z,11
2018-10-19T05:56:51.121Z,9
2018-10-19T06:01:53.583Z,7
2018-10-19T06:06:55.999Z,8
2018-10-19T06:11:58.431Z,9
2018-10-19T06:17:00.960Z,10
2018-10-19T06:22:03.352Z,10
2018-10-19T06:27:05.755Z,10
2018-10-19T06:32:08.265Z,10
2018-10-19T06:37:10.639Z,10
2018-10-19T06:42:13.092Z,11
2018-10-19T06:47:15.661Z,11
2018-10-19T06:52:17.987Z,9
2018-10-19T06:57:20.398Z,9
2018-10-19T07:02:22.839Z,12
2018-10-19T07:07:25.278Z,11
2018-10-19T07:12:27.710Z,10
2018-10-19T07:17:30.179Z,10
2018-10-19T07:22:32.604Z,11
2018-10-19T07:27:35.046Z,11
2018-10-19T07:32:37.522Z,10
2018-10-19T07:37:39.928Z,13
2018-10-19T07:42:42.373Z,11
2018-10-19T07:47:44.922Z,9
2018-10-19T07:52:47.280Z,9
2018-10-19T07:57:49.677Z,9
2018-10-19T08:02:52.130Z,8
2018-10-19T08:07:54.570Z,8
2018-10-19T08:12:57.013Z,7
2018-10-19T08:17:59.438Z,6
2018-10-19T08:23:02.134Z,5
2018-10-19T08:28:04.363Z,5
2018-10-19T08:33:06.786Z,7
2018-10-19T08:38:09.205Z,8
2018-10-19T08:43:11.751Z,7
2018-10-19T08:48:14.122Z,7
2018-10-19T08:53:16.671Z,7
2018-10-19T08:58:19.088Z,7
2018-10-19T09:03:21.488Z,8
2018-10-19T09:08:23.923Z,7
2018-10-19T09:13:26.289Z,7
2018-10-19T09:18:28.811Z,7
2018-10-19T09:23:31.198Z,5
2018-10-19T09:28:33.610Z,5
2018-10-19T09:33:36.056Z,5
2018-10-19T09:38:38.505Z,4
2018-10-19T09:43:40.937Z,5
2018-10-19T09:53:45.814Z,4
2018-10-19T09:58:48.246Z,5
2018-10-19T10:03:50.692Z,4
2018-10-19T10:08:53.166Z,5
2018-10-19T10:13:55.569Z,4
2018-10-19T10:18:58.100Z,5
2018-10-19T10:24:00.465Z,5
2018-10-19T10:29:02.891Z,5
2018-10-19T10:34:05.365Z,6
2018-10-19T10:39:07.993Z,5
2018-10-19T10:44:10.225Z,5
2018-10-19T10:49:12.759Z,7
2018-10-19T10:54:15.102Z,7
2018-10-19T10:59:17.546Z,10
2018-10-19T11:04:19.992Z,12
2018-10-19T11:09:22.459Z,12
2018-10-19T11:14:24.857Z,13
2018-10-19T11:19:27.303Z,14
2018-10-19T11:24:29.769Z,13
2018-10-19T11:29:32.202Z,13
2018-10-19T11:34:34.655Z,16
2018-10-19T11:39:37.099Z,15
2018-10-19T11:44:39.498Z,13
2018-10-19T11:49:41.936Z,14
2018-10-19T11:54:44.394Z,14
2018-10-19T11:59:46.853Z,17
2018-10-19T12:04:49.280Z,21
2018-10-19T12:09:51.697Z,18
2018-10-19T12:14:54.151Z,12
2018-10-19T12:19:56.609Z,12
2018-10-19T12:24:59.054Z,13
2018-10-19T12:30:06.486Z,15
2018-10-19T12:35:03.899Z,15
2018-10-19T12:40:06.352Z,15
2018-10-19T12:45:08.848Z,12
2018-10-19T12:50:11.247Z,13
2018-10-19T12:55:13.831Z,12
2018-10-19T13:00:16.119Z,12
2018-10-19T13:05:18.549Z,20
2018-10-19T13:10:20.990Z,16
2018-10-19T13:15:23.433Z,13
2018-10-19T13:20:25.866Z,14
2018-10-19T13:25:28.316Z,15
2018-10-19T13:30:30.837Z,18
2018-10-19T13:35:33.188Z,14
2018-10-19T13:40:35.650Z,16
2018-10-19T13:45:38.099Z,16
2018-10-19T13:50:40.507Z,15
2018-10-19T13:55:42.956Z,16
2018-10-19T14:00:45.404Z,16
2018-10-19T14:05:47.878Z,17
2018-10-19T14:10:50.282Z,18
2018-10-19T14:15:52.708Z,19
2018-10-19T14:20:55.257Z,22
2018-10-19T14:25:57.666Z,22
2018-10-19T14:31:00.121Z,21
2018-10-19T14:36:02.476Z,18
2018-10-19T14:41:05.068Z,22
2018-10-19T14:46:07.367Z,23
2018-10-19T14:51:09.841Z,26
2018-10-19T14:56:12.234Z,24
2018-10-19T15:01:14.762Z,27
2018-10-19T15:06:17.107Z,23
2018-10-19T15:11:19.793Z,26
2018-10-19T15:16:22.002Z,27
2018-10-19T15:21:24.427Z,33
2018-10-19T15:26:26.927Z,30
2018-10-19T15:31:29.327Z,33
2018-10-19T15:36:31.801Z,34
2018-10-19T15:41:34.201Z,33
2018-10-19T15:46:36.748Z,27
2018-10-19T15:51:39.103Z,33
2018-10-19T15:56:41.557Z,29
2018-10-19T16:01:43.985Z,28
2018-10-19T16:06:46.398Z,38
2018-10-19T16:11:48.843Z,31
2018-10-19T16:16:51.275Z,32
2018-10-19T16:21:53.716Z,32
2018-10-19T16:26:56.192Z,28
2018-10-19T16:31:58.598Z,26
2018-10-19T16:37:01.031Z,26
2018-10-19T16:42:03.675Z,27
2018-10-19T16:47:05.914Z,29
2018-10-19T16:52:08.400Z,29
2018-10-19T16:57:10.873Z,26
2018-10-19T17:02:13.250Z,29
2018-10-19T17:07:15.725Z,30
2018-10-19T17:12:18.126Z,24
2018-10-19T17:17:20.561Z,26
2018-10-19T17:22:22.995Z,25
2018-10-19T17:27:25.448Z,25
2018-10-19T17:32:27.894Z,23
2018-10-19T17:37:30.427Z,26
2018-10-19T17:42:32.768Z,28
2018-10-19T17:47:35.221Z,23
2018-10-19T17:52:37.654Z,23
2018-10-19T17:57:40.128Z,24
2018-10-19T18:02:42.529Z,23
2018-10-19T18:07:44.971Z,24
2018-10-19T18:12:47.512Z,27
2018-10-19T18:17:49.886Z,28
2018-10-19T18:22:52.392Z,25
2018-10-19T18:27:54.728Z,31
2018-10-19T18:32:57.157Z,28
2018-10-19T18:37:59.660Z,31
2018-10-19T18:43:02.117Z,29
2018-10-19T18:48:04.518Z,30
2018-10-19T18:53:07.050Z,30
2018-10-19T18:58:09.394Z,28
2018-10-19T19:03:11.812Z,28
2018-10-19T19:08:14.364Z,30
2018-10-19T19:13:16.695Z,31
2018-10-19T19:18:19.135Z,28
2018-10-19T19:23:21.568Z,29
2018-10-19T19:28:24.129Z,30
2018-10-19T19:33:26.450Z,30
2018-10-19T19:38:28.890Z,31
2018-10-19T19:43:31.342Z,30
2018-10-19T19:48:33.795Z,32
2018-10-19T19:53:36.212Z,31
2018-10-19T19:58:38.654Z,31
2018-10-19T20:03:41.104Z,31
2018-10-19T20:08:43.553Z,31
2018-10-19T20:13:45.978Z,30
2018-10-19T20:18:48.413Z,30
2018-10-19T20:23:50.869Z,31
2018-10-19T20:28:53.313Z,32
2018-10-19T20:33:55.736Z,31
2018-10-19T20:38:58.180Z,30
2018-10-19T20:44:00.713Z,31
2018-10-19T20:49:03.058Z,31
2018-10-19T20:54:05.580Z,31
2018-10-19T20:59:08.021Z,32
2018-10-19T21:04:10.390Z,31
2018-10-19T21:09:12.816Z,31
2018-10-19T21:14:15.347Z,31
2018-10-19T21:19:17.718Z,33
2018-10-19T21:24:20.130Z,31
2018-10-19T21:29:22.836Z,32
2018-10-19T21:34:25.009Z,33
2018-10-19T21:39:27.557Z,32
2018-10-19T21:44:29.917Z,33
2018-10-19T21:49:32.336Z,33
2018-10-19T21:54:34.785Z,35
2018-10-19T21:59:37.222Z,32
2018-10-19T22:04:39.701Z,34
2018-10-19T22:09:42.097Z,35
2018-10-19T22:14:44.600Z,37
2018-10-19T22:19:47.023Z,37
2018-10-19T22:24:49.432Z,38
2018-10-19T22:29:51.868Z,37
2018-10-19T22:34:54.332Z,36
2018-10-19T22:39:56.733Z,35
2018-10-19T22:44:59.191Z,37
2018-10-19T22:50:01.637Z,34
2018-10-19T22:55:04.102Z,37
2018-10-19T23:00:06.542Z,39
2018-10-19T23:05:09.022Z,40
2018-10-19T23:10:11.380Z,37
2018-10-19T23:15:13.827Z,36
2018-10-19T23:20:16.264Z,37
2018-10-19T23:25:18.711Z,36
2018-10-19T23:30:21.222Z,37
2018-10-19T23:35:23.591Z,36
2018-10-19T23:40:26.032Z,34
2018-10-19T23:45:28.471Z,34
2018-10-19T23:50:30.940Z,33
2018-10-19T23:55:33.341Z,32
